TimeCST,TemperatureF,Dew PointF,Humidity,Sea Level PressureIn,VisibilityMPH,Wind Direction,Wind SpeedMPH,Gust SpeedMPH,PrecipitationIn,Events,Conditions,WindDirDegrees,DateUTC
12:53 AM,27.0,23.0,85,30.32,10.0,Calm,Calm,-,N/A,,Clear,0,2012-12-13 06:53:00
1:53 AM,28.0,23.0,81,30.32,10.0,Calm,Calm,-,N/A,,Clear,0,2012-12-13 07:53:00
2:53 AM,26.1,21.9,84,30.33,10.0,Calm,Calm,-,N/A,,Clear,0,2012-12-13 08:53:00
3:53 AM,24.1,21.0,88,30.33,10.0,Calm,Calm,-,N/A,,Clear,0,2012-12-13 09:53:00
4:53 AM,21.9,19.9,92,30.35,10.0,Calm,Calm,-,N/A,,Clear,0,2012-12-13 10:53:00
5:53 AM,23.0,21.0,92,30.37,9.0,Calm,Calm,-,N/A,,Clear,0,2012-12-13 11:53:00
6:53 AM,21.9,19.0,89,30.39,6.0,Calm,Calm,-,N/A,,Clear,0,2012-12-13 12:53:00
7:53 AM,27.0,25.0,92,30.38,7.0,Calm,Calm,-,N/A,,Clear,0,2012-12-13 13:53:00
8:53 AM,34.0,28.0,79,30.39,10.0,Calm,Calm,-,N/A,,Clear,0,2012-12-13 14:53:00
9:53 AM,39.9,28.9,65,30.38,10.0,Calm,Calm,-,N/A,,Clear,0,2012-12-13 15:53:00
10:53 AM,45.0,28.0,52,30.38,10.0,Calm,Calm,-,N/A,,Clear,0,2012-12-13 16:53:00
11:53 AM,48.9,14.0,25,30.35,10.0,Calm,Calm,-,N/A,,Clear,0,2012-12-13 17:53:00
12:53 PM,51.1,19.0,28,30.34,10.0,Calm,Calm,-,N/A,,Clear,0,2012-12-13 18:53:00
1:53 PM,53.1,15.1,22,30.31,10.0,Calm,Calm,-,N/A,,Clear,0,2012-12-13 19:53:00
2:53 PM,53.1,17.1,24,30.31,10.0,Calm,Calm,-,N/A,,Clear,0,2012-12-13 20:53:00
3:53 PM,52.0,12.9,21,30.30,10.0,Calm,Calm,-,N/A,,Clear,0,2012-12-13 21:53:00
5:53 PM,39.9,19.0,43,30.32,10.0,SW,3.5,-,N/A,,Clear,220,2012-12-13 23:53:00
6:53 PM,36.0,19.9,52,30.33,10.0,Calm,Calm,-,N/A,,Clear,0,2012-12-14 00:53:00
7:53 PM,33.1,19.9,59,30.35,10.0,Calm,Calm,-,N/A,,Clear,0,2012-12-14 01:53:00
8:53 PM,30.0,21.9,72,30.34,10.0,Calm,Calm,-,N/A,,Clear,0,2012-12-14 02:53:00
9:53 PM,30.9,21.0,67,30.35,10.0,Calm,Calm,-,N/A,,Clear,0,2012-12-14 03:53:00
10:53 PM,30.0,24.1,79,30.33,10.0,Calm,Calm,-,N/A,,Clear,0,2012-12-14 04:53:00
11:53 PM,30.0,25.0,82,30.32,10.0,Calm,Calm,-,N/A,,Clear,0,2012-12-14 05:53:00